Time;durP1;ratioP1;P1;durP2;ratioP2;P2;SDS_P1;SDS_P2;PMS_P1;PMS_P2;Temp;Humidity;BMP_temperature;BMP_pressure;BME280_temperature;BME280_humidity;BME280_pressure;Samples;Min_cycle;Max_cycle;Signal;HPM_P1;HPM_P2
2021/01/16 00:00:58;;;;;;;13.53;11.90;;;1.70;99.90;;;;;;5051934;28;20431;-65
2021/01/16 00:03:24;;;;;;;16.17;12.50;;;1.80;99.90;;;;;;5058523;28;21211;-65
2021/01/16 00:05:51;;;;;;;15.70;11.37;;;1.80;99.90;;;;;;5053599;28;20621;-65
2021/01/16 00:08:20;;;;;;;14.17;12.00;;;1.80;99.90;;;;;;5052222;28;20192;-65
2021/01/16 00:10:51;;;;;;;16.50;12.90;;;1.80;99.90;;;;;;5058177;28;20475;-65
2021/01/16 00:13:19;;;;;;;16.43;12.57;;;1.80;99.90;;;;;;5052327;28;20470;-65
2021/01/16 00:15:45;;;;;;;14.20;10.63;;;1.80;99.90;;;;;;5053669;28;20897;-65
2021/01/16 00:18:13;;;;;;;16.00;12.20;;;1.80;99.90;;;;;;5055116;28;20422;-65
2021/01/16 00:20:41;;;;;;;15.97;12.40;;;1.80;99.90;;;;;;5052231;28;20491;-65
2021/01/16 00:23:07;;;;;;;15.13;12.13;;;1.80;99.90;;;;;;5058498;28;20522;-65
2021/01/16 00:25:34;;;;;;;14.03;11.03;;;1.80;99.90;;;;;;5051216;28;20437;-65
2021/01/16 00:28:00;;;;;;;17.93;12.83;;;1.80;99.90;;;;;;5051771;28;20939;-65
2021/01/16 00:30:28;;;;;;;16.57;12.37;;;1.80;99.90;;;;;;5052023;28;20450;-65
2021/01/16 00:32:54;;;;;;;15.23;12.27;;;1.80;99.90;;;;;;5052242;28;20794;-65
2021/01/16 00:35:20;;;;;;;16.93;13.43;;;1.80;99.90;;;;;;5056215;28;20987;-65
2021/01/16 00:37:49;;;;;;;13.20;11.73;;;1.80;99.90;;;;;;5050826;28;20441;-65
2021/01/16 00:40:21;;;;;;;15.30;12.70;;;1.80;99.90;;;;;;5052196;28;20519;-65
2021/01/16 00:42:50;;;;;;;14.17;12.03;;;1.90;99.90;;;;;;5051326;28;20766;-65
2021/01/16 00:45:17;;;;;;;13.83;11.70;;;1.90;99.90;;;;;;5052386;28;20789;-65
2021/01/16 00:47:43;;;;;;;16.47;13.10;;;1.90;99.90;;;;;;5052396;28;20454;-65
2021/01/16 00:50:15;;;;;;;17.83;13.03;;;1.90;99.90;;;;;;5053306;28;20454;-65
2021/01/16 00:52:40;;;;;;;17.47;13.73;;;1.90;99.90;;;;;;5053273;28;20469;-65
2021/01/16 00:55:08;;;;;;;16.30;13.60;;;1.90;99.90;;;;;;5052718;28;20824;-65
2021/01/16 00:57:34;;;;;;;18.03;13.00;;;1.80;99.90;;;;;;5052248;28;20509;-65
2021/01/16 01:00:00;;;;;;;14.03;12.20;;;1.90;99.90;;;;;;5056238;28;20521;-65
2021/01/16 01:02:25;;;;;;;17.50;12.73;;;1.90;99.90;;;;;;5051771;28;20488;-65
2021/01/16 01:04:51;;;;;;;17.00;13.90;;;1.90;99.90;;;;;;5051866;28;20850;-65
2021/01/16 01:07:17;;;;;;;16.27;11.83;;;1.90;99.90;;;;;;5053640;28;20723;-65
2021/01/16 01:09:45;;;;;;;20.10;14.07;;;1.90;99.90;;;;;;5054145;28;20422;-65
2021/01/16 01:12:12;;;;;;;17.37;13.43;;;2.00;99.90;;;;;;5055685;28;20525;-65
2021/01/16 01:14:39;;;;;;;15.57;12.30;;;2.00;99.90;;;;;;5061824;28;20464;-65
2021/01/16 01:17:15;;;;;;;18.40;13.47;;;2.00;99.90;;;;;;5060787;28;20431;-65
2021/01/16 01:19:40;;;;;;;19.23;13.93;;;2.00;99.90;;;;;;5056747;28;20829;-67
2021/01/16 01:22:06;;;;;;;19.70;13.20;;;2.00;99.90;;;;;;5055062;28;20513;-65
2021/01/16 01:24:31;;;;;;;19.40;14.10;;;2.00;99.90;;;;;;5057102;28;20211;-65
2021/01/16 01:26:57;;;;;;;18.43;14.83;;;2.00;99.90;;;;;;5062368;28;20648;-65
2021/01/16 01:29:22;;;;;;;19.10;13.83;;;2.00;99.90;;;;;;5060741;28;20180;-65
2021/01/16 01:31:48;;;;;;;17.07;13.27;;;2.00;99.90;;;;;;5055452;28;20228;-65
2021/01/16 01:34:13;;;;;;;17.10;13.03;;;2.00;99.90;;;;;;5059978;28;20693;-65
2021/01/16 01:36:39;;;;;;;20.83;14.07;;;2.00;99.90;;;;;;5055555;28;20219;-65
2021/01/16 01:39:05;;;;;;;18.57;13.90;;;1.90;99.90;;;;;;5058831;28;20637;-65
2021/01/16 01:41:30;;;;;;;17.67;13.67;;;1.90;99.90;;;;;;5054707;28;20599;-65
2021/01/16 01:43:56;;;;;;;21.30;14.23;;;2.00;99.90;;;;;;5054509;28;20524;-65
2021/01/16 01:46:21;;;;;;;19.07;14.10;;;2.00;99.90;;;;;;5063911;28;20556;-65
2021/01/16 01:48:47;;;;;;;14.60;12.17;;;2.00;99.90;;;;;;5059260;28;20618;-65
2021/01/16 01:51:14;;;;;;;16.73;12.10;;;2.00;99.90;;;;;;5054740;28;20194;-65
2021/01/16 01:53:42;;;;;;;15.20;13.10;;;2.00;99.90;;;;;;5058607;28;20203;-65
2021/01/16 01:56:09;;;;;;;15.77;13.10;;;2.00;99.90;;;;;;5056908;28;20494;-65
2021/01/16 01:58:38;;;;;;;20.70;14.13;;;2.00;99.90;;;;;;5061611;28;20423;-65
2021/01/16 02:01:04;;;;;;;20.23;14.00;;;2.00;99.90;;;;;;5058429;28;20439;-65
2021/01/16 02:03:33;;;;;;;18.97;14.57;;;2.00;99.90;;;;;;5059060;28;20970;-65
2021/01/16 02:05:59;;;;;;;17.30;13.90;;;2.00;99.90;;;;;;5055883;28;20173;-65
2021/01/16 02:08:24;;;;;;;16.00;13.30;;;2.00;99.90;;;;;;5053871;28;20445;-65
2021/01/16 02:10:50;;;;;;;20.57;14.80;;;2.00;99.90;;;;;;5054941;28;20642;-65
2021/01/16 02:13:16;;;;;;;24.97;16.27;;;2.00;99.90;;;;;;5054330;28;20200;-65
2021/01/16 02:15:55;;;;;;;23.70;15.93;;;2.00;99.90;;;;;;5053736;28;20488;-65
2021/01/16 02:18:42;;;;;;;23.00;15.77;;;2.00;99.90;;;;;;5062588;28;20177;-65
2021/01/16 02:21:09;;;;;;;28.60;17.00;;;2.00;99.90;;;;;;5059234;28;20418;-65
2021/01/16 02:23:40;;;;;;;26.57;17.40;;;1.90;99.90;;;;;;5053002;28;20499;-65
2021/01/16 02:26:15;;;;;;;26.43;16.53;;;2.00;99.90;;;;;;5050879;28;20431;-65
2021/01/16 02:28:52;;;;;;;15.57;12.50;;;2.00;99.90;;;;;;5053161;28;20521;-65
2021/01/16 02:31:18;;;;;;;14.47;12.50;;;2.00;99.90;;;;;;5059587;28;20814;-65
2021/01/16 02:33:45;;;;;;;14.83;12.80;;;2.00;99.90;;;;;;5053321;28;20455;-65
2021/01/16 02:36:41;;;;;;;19.60;12.57;;;1.90;99.90;;;;;;5054011;28;20434;-65
2021/01/16 02:39:19;;;;;;;13.87;12.37;;;2.00;99.90;;;;;;5060049;28;20477;-65
2021/01/16 02:42:13;;;;;;;28.07;19.73;;;2.00;99.90;;;;;;5054211;28;20468;-65
2021/01/16 02:44:38;;;;;;;34.73;22.77;;;1.90;99.90;;;;;;5060049;28;20444;-65
2021/01/16 02:47:23;;;;;;;26.27;17.80;;;1.90;99.90;;;;;;5055197;28;20957;-65
2021/01/16 02:49:54;;;;;;;29.80;19.70;;;1.90;99.90;;;;;;5053076;28;20188;-65
2021/01/16 02:52:21;;;;;;;45.27;26.20;;;1.90;99.90;;;;;;5060411;28;21061;-65
2021/01/16 02:54:48;;;;;;;31.17;21.20;;;1.90;99.90;;;;;;5057809;28;20470;-65
2021/01/16 02:57:15;;;;;;;22.30;15.80;;;1.90;99.90;;;;;;5058350;28;20433;-65
2021/01/16 02:59:45;;;;;;;18.40;14.73;;;2.00;99.90;;;;;;5055318;28;20434;-65
2021/01/16 03:02:13;;;;;;;19.93;14.17;;;2.00;99.90;;;;;;5052460;28;20468;-65
2021/01/16 03:04:39;;;;;;;21.07;13.13;;;2.00;99.90;;;;;;5054415;28;20442;-65
2021/01/16 03:07:08;;;;;;;14.73;12.27;;;2.00;99.90;;;;;;5052925;28;20928;-65
2021/01/16 03:09:35;;;;;;;17.77;12.97;;;2.00;99.90;;;;;;5053954;28;20541;-65
2021/01/16 03:12:01;;;;;;;18.40;13.47;;;2.00;99.90;;;;;;5053396;28;20433;-65
2021/01/16 03:14:34;;;;;;;17.40;13.10;;;2.00;99.90;;;;;;5057439;28;20461;-65
2021/01/16 03:17:07;;;;;;;14.10;11.33;;;2.00;99.90;;;;;;5060824;28;20433;-65
2021/01/16 03:19:35;;;;;;;17.73;13.37;;;2.00;99.90;;;;;;5053653;28;20544;-65
2021/01/16 03:22:14;;;;;;;16.40;12.90;;;1.90;99.90;;;;;;5054330;28;21241;-65
2021/01/16 03:24:40;;;;;;;15.10;12.40;;;2.00;99.90;;;;;;5067998;28;20586;-65
2021/01/16 03:27:05;;;;;;;17.63;13.30;;;1.90;99.90;;;;;;5052942;28;20775;-65
2021/01/16 03:29:31;;;;;;;17.27;14.20;;;1.90;99.90;;;;;;5057115;28;20267;-65
2021/01/16 03:31:56;;;;;;;15.47;13.17;;;1.90;99.90;;;;;;5052222;28;20740;-66
2021/01/16 03:34:22;;;;;;;16.63;12.90;;;1.90;99.90;;;;;;5055070;28;20250;-65
2021/01/16 03:36:47;;;;;;;18.33;14.70;;;1.90;99.90;;;;;;5053623;28;20176;-65
2021/01/16 03:39:13;;;;;;;15.53;12.27;;;1.90;99.90;;;;;;5053161;28;20254;-65
2021/01/16 03:41:38;;;;;;;13.80;11.70;;;1.90;99.90;;;;;;5067701;28;20176;-65
2021/01/16 03:44:04;;;;;;;16.67;13.83;;;1.90;99.90;;;;;;5053144;28;20203;-65
2021/01/16 03:46:29;;;;;;;17.90;14.33;;;1.80;99.90;;;;;;5051692;28;20188;-65
2021/01/16 03:48:55;;;;;;;19.50;13.80;;;1.80;99.90;;;;;;5055362;28;20547;-65
2021/01/16 03:51:20;;;;;;;15.40;13.23;;;1.80;99.90;;;;;;5051522;28;20183;-65
2021/01/16 03:53:47;;;;;;;17.73;13.70;;;1.80;99.90;;;;;;5052019;28;20643;-64
2021/01/16 03:56:13;;;;;;;16.40;13.93;;;1.90;99.90;;;;;;5054492;28;20196;-65
2021/01/16 03:58:38;;;;;;;14.93;12.10;;;1.90;99.90;;;;;;5053160;28;20446;-65
2021/01/16 04:01:04;;;;;;;17.70;12.87;;;1.90;99.90;;;;;;5052488;28;20194;-65
2021/01/16 04:03:29;;;;;;;15.60;13.17;;;1.90;99.90;;;;;;5053968;28;20237;-65
2021/01/16 04:05:55;;;;;;;16.57;12.77;;;1.90;99.90;;;;;;5051911;28;20191;-65
2021/01/16 04:08:21;;;;;;;19.20;13.87;;;1.90;99.90;;;;;;5069071;28;20203;-65
2021/01/16 04:10:46;;;;;;;16.93;12.60;;;1.90;99.90;;;;;;5052183;28;20606;-65
2021/01/16 04:13:12;;;;;;;16.87;13.20;;;1.90;99.90;;;;;;5058746;28;20207;-65
2021/01/16 04:15:37;;;;;;;15.80;11.37;;;1.90;99.90;;;;;;5062601;28;20177;-65
2021/01/16 04:18:03;;;;;;;17.67;13.60;;;1.90;99.90;;;;;;5061411;28;20179;-64
2021/01/16 04:20:29;;;;;;;15.13;12.90;;;1.90;99.90;;;;;;5051285;28;20196;-65
2021/01/16 04:22:54;;;;;;;18.47;13.03;;;1.90;99.90;;;;;;5059611;28;20173;-64
2021/01/16 04:25:20;;;;;;;18.37;13.27;;;1.90;99.90;;;;;;5053201;28;20188;-65
2021/01/16 04:27:45;;;;;;;18.03;13.13;;;1.90;99.90;;;;;;5054285;28;20545;-65
2021/01/16 04:30:11;;;;;;;16.43;13.40;;;1.90;99.90;;;;;;5058326;28;20497;-65
2021/01/16 04:32:37;;;;;;;18.00;13.47;;;1.80;99.90;;;;;;5053273;28;20267;-65
2021/01/16 04:35:03;;;;;;;17.43;13.53;;;1.80;99.90;;;;;;5053232;28;20483;-65
2021/01/16 04:37:28;;;;;;;15.97;12.33;;;1.80;99.90;;;;;;5052358;28;20728;-65
2021/01/16 04:39:54;;;;;;;15.30;12.10;;;1.80;99.90;;;;;;5065159;28;20537;-65
2021/01/16 04:42:20;;;;;;;13.97;11.23;;;1.80;99.90;;;;;;5052296;28;20508;-65
2021/01/16 04:44:48;;;;;;;13.83;11.03;;;1.80;99.90;;;;;;5055869;28;20208;-65
2021/01/16 04:47:25;;;;;;;17.90;12.13;;;1.80;99.90;;;;;;5058422;28;20836;-65
2021/01/16 04:49:52;;;;;;;22.83;13.67;;;1.80;99.90;;;;;;5059846;28;20453;-64
2021/01/16 04:52:27;;;;;;;15.83;12.43;;;1.80;99.90;;;;;;5054240;28;20453;-65
2021/01/16 04:54:54;;;;;;;16.77;11.90;;;1.80;99.90;;;;;;5054241;28;20522;-65
2021/01/16 04:57:22;;;;;;;14.80;11.80;;;1.80;99.90;;;;;;5061784;28;20429;-65
2021/01/16 04:59:48;;;;;;;16.90;11.63;;;1.80;99.90;;;;;;5056336;28;20476;-65
2021/01/16 05:02:14;;;;;;;13.67;10.57;;;1.80;99.90;;;;;;5055950;28;20430;-65
2021/01/16 05:04:43;;;;;;;15.00;11.87;;;1.80;99.90;;;;;;5056220;28;20196;-64
2021/01/16 05:07:12;;;;;;;13.47;10.90;;;1.80;99.90;;;;;;5056017;28;20941;-65
2021/01/16 05:09:40;;;;;;;15.97;12.70;;;1.90;99.90;;;;;;5066165;28;20495;-65
2021/01/16 05:12:06;;;;;;;18.10;12.17;;;1.90;99.90;;;;;;5060256;28;20790;-65
2021/01/16 05:14:48;;;;;;;15.67;11.27;;;1.90;99.90;;;;;;5057702;28;20495;-64
2021/01/16 05:17:15;;;;;;;16.33;11.97;;;1.90;99.90;;;;;;5059050;28;20216;-65
2021/01/16 05:19:41;;;;;;;15.10;11.70;;;1.80;99.90;;;;;;5055006;28;20425;-65
2021/01/16 05:22:06;;;;;;;13.97;10.27;;;1.90;99.90;;;;;;5060189;28;20441;-65
2021/01/16 05:24:32;;;;;;;15.43;12.33;;;1.80;99.90;;;;;;5059526;28;20958;-65
2021/01/16 05:27:05;;;;;;;14.70;11.50;;;1.80;99.90;;;;;;5054279;28;20235;-65
2021/01/16 05:29:33;;;;;;;14.20;11.33;;;1.90;99.90;;;;;;5053886;28;20545;-64
2021/01/16 05:32:01;;;;;;;15.80;11.87;;;1.90;99.90;;;;;;5062535;28;20461;-65
2021/01/16 05:34:27;;;;;;;15.60;11.20;;;1.90;99.90;;;;;;5056139;28;20534;-65
2021/01/16 05:36:54;;;;;;;14.17;10.57;;;1.90;99.90;;;;;;5058655;28;20482;-64
2021/01/16 05:39:23;;;;;;;13.67;10.63;;;2.00;99.90;;;;;;5056959;28;20460;-65
2021/01/16 05:41:48;;;;;;;17.30;10.80;;;2.00;99.90;;;;;;5054256;28;20506;-65
2021/01/16 05:44:15;;;;;;;13.80;10.90;;;2.00;99.90;;;;;;5052846;28;20513;-65
2021/01/16 05:46:45;;;;;;;13.53;10.97;;;2.00;99.90;;;;;;5054667;28;20551;-65
2021/01/16 05:49:17;;;;;;;16.40;11.60;;;2.00;99.90;;;;;;5058210;28;20891;-64
2021/01/16 05:51:44;;;;;;;14.87;10.63;;;2.00;99.90;;;;;;5060917;28;20974;-65
2021/01/16 05:54:12;;;;;;;14.13;10.30;;;2.00;99.90;;;;;;5062499;28;20462;-65
2021/01/16 05:56:39;;;;;;;12.73;10.27;;;2.00;99.90;;;;;;5057126;28;20444;-65
2021/01/16 05:59:10;;;;;;;17.30;11.77;;;2.00;99.90;;;;;;5054612;28;20467;-64
2021/01/16 06:01:37;;;;;;;13.87;11.13;;;2.00;99.90;;;;;;5056239;28;20471;-65
2021/01/16 06:04:04;;;;;;;16.23;11.37;;;2.00;99.90;;;;;;5053096;28;20539;-64
2021/01/16 06:06:35;;;;;;;15.73;10.20;;;2.10;99.90;;;;;;5054552;28;20863;-65
2021/01/16 06:09:03;;;;;;;13.33;10.63;;;2.10;99.90;;;;;;5054853;28;20969;-65
2021/01/16 06:11:38;;;;;;;13.17;10.43;;;2.10;99.90;;;;;;5059814;28;20450;-65
2021/01/16 06:14:11;;;;;;;15.00;11.73;;;2.10;99.90;;;;;;5058691;28;20512;-65
2021/01/16 06:16:51;;;;;;;15.70;11.20;;;2.00;99.90;;;;;;5058919;28;20845;-65
2021/01/16 06:19:40;;;;;;;16.60;11.37;;;2.00;99.90;;;;;;5058783;28;20421;-65
2021/01/16 06:22:10;;;;;;;13.63;10.80;;;2.00;99.90;;;;;;5059083;28;20422;-65
2021/01/16 06:24:37;;;;;;;15.17;11.93;;;2.00;99.90;;;;;;5060405;28;20467;-64
2021/01/16 06:27:04;;;;;;;14.53;11.23;;;2.00;99.90;;;;;;5053876;28;20492;-65
2021/01/16 06:29:31;;;;;;;15.20;12.20;;;2.00;99.90;;;;;;5054673;28;21031;-64
2021/01/16 06:32:09;;;;;;;12.93;11.30;;;2.00;99.90;;;;;;5055034;28;20509;-65
2021/01/16 06:34:40;;;;;;;20.00;11.70;;;2.00;99.90;;;;;;5055109;28;20870;-65
2021/01/16 06:37:09;;;;;;;12.37;10.43;;;2.00;99.90;;;;;;5059005;28;20986;-65
2021/01/16 06:39:41;;;;;;;12.90;11.43;;;2.00;99.90;;;;;;5058219;28;20459;-65
2021/01/16 06:42:11;;;;;;;14.20;11.27;;;2.00;99.90;;;;;;5057223;28;20422;-65
2021/01/16 06:44:37;;;;;;;14.70;11.53;;;2.00;99.90;;;;;;5054554;28;20429;-65
2021/01/16 06:47:04;;;;;;;13.53;11.03;;;2.00;99.90;;;;;;5059478;28;20462;-65
2021/01/16 06:49:32;;;;;;;13.03;11.07;;;2.10;99.90;;;;;;5054341;28;20456;-65
2021/01/16 06:51:59;;;;;;;13.10;10.37;;;2.10;99.90;;;;;;5059932;28;20937;-65
2021/01/16 06:54:32;;;;;;;14.33;11.20;;;2.00;99.90;;;;;;5055000;28;20490;-65
2021/01/16 06:57:12;;;;;;;14.33;11.63;;;2.00;99.90;;;;;;5051550;28;20446;-64
2021/01/16 06:59:42;;;;;;;18.77;11.83;;;2.00;99.90;;;;;;5053490;28;20939;-65
2021/01/16 07:02:28;;;;;;;17.07;11.70;;;2.10;99.90;;;;;;5055954;28;20944;-65
2021/01/16 07:05:05;;;;;;;14.87;11.73;;;2.10;99.90;;;;;;5073724;28;20517;-65
2021/01/16 07:07:32;;;;;;;17.10;12.60;;;2.10;99.90;;;;;;5052784;28;20446;-65
2021/01/16 07:10:10;;;;;;;16.60;12.87;;;2.10;99.90;;;;;;5054086;28;20438;-65
2021/01/16 07:12:36;;;;;;;15.80;12.33;;;2.00;99.90;;;;;;5053872;28;20517;-65
2021/01/16 07:15:06;;;;;;;19.97;13.97;;;2.00;99.90;;;;;;5054854;28;20528;-64
2021/01/16 07:17:32;;;;;;;21.27;14.13;;;2.00;99.90;;;;;;5053709;28;20430;-65
2021/01/16 07:19:58;;;;;;;20.40;13.80;;;2.00;99.90;;;;;;5054291;28;20462;-64
2021/01/16 07:22:31;;;;;;;16.07;12.80;;;2.00;99.90;;;;;;5057626;28;20432;-64
2021/01/16 07:24:58;;;;;;;19.80;15.27;;;2.00;99.90;;;;;;5053324;28;20496;-65
2021/01/16 07:27:27;;;;;;;18.10;13.07;;;2.00;99.90;;;;;;5057827;28;20465;-65
2021/01/16 07:30:01;;;;;;;19.17;14.10;;;2.00;99.90;;;;;;5060516;28;20440;-65
2021/01/16 07:32:39;;;;;;;19.50;13.93;;;2.00;99.90;;;;;;5060135;28;20478;-65
2021/01/16 07:35:13;;;;;;;18.70;14.17;;;2.00;99.90;;;;;;5057198;28;20951;-65
2021/01/16 07:37:44;;;;;;;19.77;13.40;;;2.00;99.90;;;;;;5052268;28;20448;-65
2021/01/16 07:40:16;;;;;;;20.00;14.37;;;2.00;99.90;;;;;;5053244;28;20451;-64
2021/01/16 07:42:53;;;;;;;17.20;13.73;;;2.00;99.90;;;;;;5053576;28;20761;-64
2021/01/16 07:45:29;;;;;;;17.40;14.03;;;2.00;99.90;;;;;;5055566;28;20517;-65
2021/01/16 07:47:57;;;;;;;18.93;14.77;;;2.00;99.90;;;;;;5056329;28;20906;-64
2021/01/16 07:50:25;;;;;;;20.03;13.90;;;2.00;99.90;;;;;;5057516;28;20429;-64
2021/01/16 07:52:55;;;;;;;18.57;14.20;;;2.00;99.90;;;;;;5056363;28;20435;-65
2021/01/16 07:55:20;;;;;;;15.50;13.80;;;2.00;99.90;;;;;;5054061;28;20960;-65
2021/01/16 07:57:50;;;;;;;20.93;14.10;;;2.00;99.90;;;;;;5055594;28;20431;-65
2021/01/16 08:00:18;;;;;;;17.10;13.57;;;2.00;99.90;;;;;;5057561;28;20638;-65
2021/01/16 08:03:12;;;;;;;14.73;12.27;;;2.00;99.90;;;;;;5056535;28;20812;-67
2021/01/16 08:05:56;;;;;;;15.50;13.40;;;2.00;99.90;;;;;;5058373;28;20435;-65
2021/01/16 08:08:48;;;;;;;17.73;13.63;;;2.00;99.90;;;;;;5057178;28;20482;-65
2021/01/16 08:11:19;;;;;;;15.90;11.63;;;2.00;99.90;;;;;;5062876;28;20466;-65
2021/01/16 08:13:49;;;;;;;17.57;13.60;;;2.00;99.90;;;;;;5052058;28;20466;-66
2021/01/16 08:16:14;;;;;;;16.37;12.70;;;1.90;99.90;;;;;;5052670;28;21172;-65
2021/01/16 08:18:46;;;;;;;17.90;13.53;;;1.90;99.90;;;;;;5059119;28;20513;-66
2021/01/16 08:21:14;;;;;;;16.57;12.33;;;1.90;99.90;;;;;;5064107;28;20185;-65
2021/01/16 08:23:48;;;;;;;18.20;13.77;;;1.90;99.90;;;;;;5067971;28;20433;-66
2021/01/16 08:26:15;;;;;;;15.60;12.63;;;2.00;99.90;;;;;;5059797;28;20433;-66
2021/01/16 08:28:43;;;;;;;15.63;12.37;;;2.00;99.90;;;;;;5057745;28;20927;-66
2021/01/16 08:31:24;;;;;;;17.60;12.40;;;2.00;99.90;;;;;;5057167;28;20506;-65
2021/01/16 08:33:49;;;;;;;18.10;13.37;;;2.10;99.90;;;;;;5065855;28;20453;-66
2021/01/16 08:36:19;;;;;;;16.10;12.77;;;2.10;99.90;;;;;;5057356;28;20492;-66
2021/01/16 08:38:46;;;;;;;19.03;14.10;;;2.10;99.90;;;;;;5056037;28;20227;-66
2021/01/16 08:41:23;;;;;;;16.80;12.33;;;2.10;99.90;;;;;;5061829;28;20480;-66
2021/01/16 08:43:57;;;;;;;14.83;12.50;;;2.10;99.90;;;;;;5062305;28;20517;-66
2021/01/16 08:46:35;;;;;;;19.50;13.50;;;2.00;99.90;;;;;;5055158;28;20418;-66
2021/01/16 08:49:10;;;;;;;14.83;11.43;;;1.90;99.90;;;;;;5055225;28;20766;-66
2021/01/16 08:51:52;;;;;;;17.13;12.63;;;2.00;99.90;;;;;;5057079;28;22443;-66
2021/01/16 08:54:22;;;;;;;19.00;13.70;;;2.00;99.90;;;;;;5067293;28;20464;-66
2021/01/16 08:57:13;;;;;;;16.60;12.97;;;2.10;99.90;;;;;;5056113;28;20460;-66
2021/01/16 08:59:39;;;;;;;17.30;12.83;;;2.10;99.90;;;;;;5056532;28;20472;-66
2021/01/16 09:02:08;;;;;;;15.23;12.80;;;2.10;99.90;;;;;;5057882;28;20722;-66
2021/01/16 09:04:36;;;;;;;19.40;12.50;;;2.20;99.90;;;;;;5058812;28;20215;-66
2021/01/16 09:07:15;;;;;;;17.53;12.67;;;2.10;99.90;;;;;;5055310;28;20425;-66
2021/01/16 09:09:51;;;;;;;17.97;13.40;;;2.10;99.90;;;;;;5059373;28;20436;-66
2021/01/16 09:12:22;;;;;;;15.93;12.30;;;2.10;99.90;;;;;;5057015;28;20841;-66
2021/01/16 09:14:48;;;;;;;18.30;13.63;;;2.10;99.90;;;;;;5055281;28;20450;-66
2021/01/16 09:17:22;;;;;;;18.03;13.33;;;2.10;99.90;;;;;;5063023;28;20518;-66
2021/01/16 09:19:58;;;;;;;15.77;12.47;;;2.20;99.90;;;;;;5055684;28;20207;-65
2021/01/16 09:22:24;;;;;;;21.37;14.57;;;2.20;99.90;;;;;;5059496;28;21063;-66
2021/01/16 09:24:50;;;;;;;22.97;15.30;;;2.30;99.90;;;;;;5056992;28;20434;-66
2021/01/16 09:27:27;;;;;;;17.37;13.37;;;2.30;99.90;;;;;;5059357;28;20488;-66
2021/01/16 09:29:53;;;;;;;19.90;14.87;;;2.30;99.90;;;;;;5053854;28;20414;-66
2021/01/16 09:32:31;;;;;;;17.10;12.53;;;2.40;99.90;;;;;;5062663;28;20505;-65
2021/01/16 09:34:57;;;;;;;17.40;12.80;;;2.40;99.90;;;;;;5056698;28;20461;-65
2021/01/16 09:37:24;;;;;;;19.70;13.37;;;2.40;99.90;;;;;;5056443;28;20443;-66
2021/01/16 09:40:11;;;;;;;21.13;14.83;;;2.30;99.90;;;;;;5056426;28;20513;-66
2021/01/16 09:42:49;;;;;;;18.77;14.10;;;2.20;99.90;;;;;;5057049;28;20533;-66
2021/01/16 09:45:16;;;;;;;17.53;12.33;;;2.30;99.90;;;;;;5054205;28;20422;-66
2021/01/16 09:47:44;;;;;;;20.00;15.47;;;2.30;99.90;;;;;;5057691;28;20431;-66
2021/01/16 09:50:12;;;;;;;15.83;13.00;;;2.30;99.90;;;;;;5059188;28;20426;-66
2021/01/16 09:53:04;;;;;;;18.97;14.10;;;2.30;99.90;;;;;;5058823;28;20422;-66
2021/01/16 09:55:34;;;;;;;17.90;13.60;;;2.40;99.90;;;;;;5056953;28;20783;-66
2021/01/16 09:58:01;;;;;;;16.47;13.23;;;2.40;99.90;;;;;;5055169;28;20425;-66
2021/01/16 10:00:33;;;;;;;19.50;14.43;;;2.30;99.90;;;;;;5060227;28;20449;-66
2021/01/16 10:03:01;;;;;;;20.63;15.90;;;2.40;99.90;;;;;;5058620;28;20442;-66
2021/01/16 10:05:34;;;;;;;16.13;13.97;;;2.50;99.90;;;;;;5053795;28;20427;-66
2021/01/16 10:08:00;;;;;;;18.80;14.40;;;2.50;99.90;;;;;;5055325;28;20425;-66
2021/01/16 10:10:27;;;;;;;18.57;14.70;;;2.50;99.90;;;;;;5054672;28;20419;-66
2021/01/16 10:13:00;;;;;;;19.60;14.23;;;2.50;99.90;;;;;;5054994;28;20423;-66
2021/01/16 10:15:28;;;;;;;17.13;14.23;;;2.50;99.90;;;;;;5075772;28;20461;-66
2021/01/16 10:17:56;;;;;;;17.63;14.47;;;2.60;99.90;;;;;;5061992;28;20426;-65
2021/01/16 10:20:32;;;;;;;16.97;13.50;;;2.60;99.90;;;;;;5055282;28;20426;-66
2021/01/16 10:23:03;;;;;;;17.27;13.63;;;2.70;99.90;;;;;;5055486;28;20951;-66
2021/01/16 10:25:42;;;;;;;19.07;14.30;;;2.70;99.90;;;;;;5057496;28;20495;-66
2021/01/16 10:28:11;;;;;;;17.70;13.47;;;2.80;99.90;;;;;;5055989;28;20423;-66
2021/01/16 10:30:56;;;;;;;20.83;15.03;;;2.80;99.90;;;;;;5051769;28;20430;-65
2021/01/16 10:33:21;;;;;;;19.30;14.00;;;2.80;99.90;;;;;;5052434;28;20471;-66
2021/01/16 10:36:05;;;;;;;19.90;14.40;;;2.60;99.90;;;;;;5053410;28;20452;-66
2021/01/16 10:38:44;;;;;;;16.30;13.43;;;2.70;99.90;;;;;;5054467;28;20176;-66
2021/01/16 10:41:15;;;;;;;15.20;12.37;;;2.70;99.90;;;;;;5055100;28;20425;-65
2021/01/16 10:43:41;;;;;;;14.40;12.27;;;2.60;99.90;;;;;;5056477;28;20790;-66
2021/01/16 10:46:13;;;;;;;18.30;14.30;;;2.60;99.90;;;;;;5056617;28;20450;-65
2021/01/16 10:48:39;;;;;;;23.30;12.97;;;2.50;99.90;;;;;;5055886;28;20181;-66
2021/01/16 10:51:11;;;;;;;17.33;12.30;;;2.60;99.90;;;;;;5056178;28;20434;-66
2021/01/16 10:53:40;;;;;;;17.23;13.30;;;2.60;99.90;;;;;;5072841;28;20893;-66
2021/01/16 10:56:14;;;;;;;17.50;13.40;;;2.60;99.90;;;;;;5063278;28;20419;-66
2021/01/16 10:58:40;;;;;;;16.23;12.97;;;2.60;99.90;;;;;;5055649;28;20461;-66
2021/01/16 11:01:09;;;;;;;17.83;12.23;;;2.60;99.90;;;;;;5054906;28;20780;-66
2021/01/16 11:03:34;;;;;;;18.00;14.43;;;2.60;99.90;;;;;;5053623;28;20766;-66
2021/01/16 11:06:07;;;;;;;18.50;13.03;;;2.70;99.90;;;;;;5054230;28;20426;-66
2021/01/16 11:08:37;;;;;;;15.80;13.10;;;2.60;99.90;;;;;;5060303;28;20614;-66
2021/01/16 11:11:23;;;;;;;16.90;12.87;;;2.50;99.90;;;;;;5053903;28;20517;-66
2021/01/16 11:13:49;;;;;;;18.47;13.43;;;2.50;99.90;;;;;;5051330;28;20569;-65
2021/01/16 11:16:16;;;;;;;16.13;12.93;;;2.60;99.90;;;;;;5059856;28;20507;-66
2021/01/16 11:18:43;;;;;;;13.50;11.10;;;2.70;99.90;;;;;;5055841;28;20437;-66
2021/01/16 11:21:11;;;;;;;14.73;11.93;;;2.70;99.90;;;;;;5059003;28;20429;-66
2021/01/16 11:23:45;;;;;;;15.97;11.47;;;2.70;99.90;;;;;;5058928;28;21195;-65
2021/01/16 11:26:13;;;;;;;20.33;15.03;;;2.70;99.90;;;;;;5051336;28;20872;-66
2021/01/16 11:28:56;;;;;;;19.10;13.93;;;2.80;99.90;;;;;;5052906;28;20427;-66
2021/01/16 11:31:25;;;;;;;16.40;12.73;;;2.80;99.90;;;;;;5053672;28;20462;-66
2021/01/16 11:34:09;;;;;;;20.93;14.00;;;2.80;99.90;;;;;;5052930;28;20459;-66
2021/01/16 11:37:02;;;;;;;18.20;14.10;;;2.80;99.90;;;;;;5053083;28;20431;-66
2021/01/16 11:39:50;;;;;;;18.50;13.80;;;2.90;99.90;;;;;;5054581;28;20458;-66
2021/01/16 11:42:17;;;;;;;16.53;13.60;;;2.70;99.90;;;;;;5052731;28;20457;-66
2021/01/16 11:44:53;;;;;;;16.80;14.00;;;2.60;99.90;;;;;;5066221;28;20434;-66
2021/01/16 11:47:19;;;;;;;18.23;13.23;;;2.70;99.90;;;;;;5058358;28;21019;-65
2021/01/16 11:49:45;;;;;;;18.40;13.10;;;2.70;99.90;;;;;;5053017;28;20427;-66
2021/01/16 11:52:12;;;;;;;18.73;14.57;;;2.70;99.90;;;;;;5054748;28;20458;-66
2021/01/16 11:54:37;;;;;;;17.13;12.60;;;2.80;99.90;;;;;;5053310;28;20485;-66
2021/01/16 11:57:04;;;;;;;17.73;14.23;;;2.80;99.90;;;;;;5052065;28;20438;-66
2021/01/16 11:59:31;;;;;;;20.13;13.77;;;2.90;99.90;;;;;;5054447;28;20203;-66
2021/01/16 12:01:57;;;;;;;18.90;15.53;;;2.90;99.90;;;;;;5052583;28;20434;-66
2021/01/16 12:04:23;;;;;;;17.60;13.40;;;2.90;99.90;;;;;;5057746;28;20430;-66
2021/01/16 12:06:50;;;;;;;16.20;12.57;;;2.90;99.90;;;;;;5051759;28;20430;-65
2021/01/16 12:09:16;;;;;;;15.57;12.93;;;2.90;99.90;;;;;;5062441;28;20184;-66
2021/01/16 12:11:51;;;;;;;17.47;13.60;;;2.90;99.90;;;;;;5049924;28;20986;-66
2021/01/16 12:14:17;;;;;;;16.20;13.40;;;2.90;99.90;;;;;;5053053;28;20648;-65
2021/01/16 12:16:44;;;;;;;18.90;13.27;;;2.90;99.90;;;;;;5057336;28;20429;-66
2021/01/16 12:19:14;;;;;;;18.10;13.70;;;3.00;99.90;;;;;;5050751;28;20590;-66
2021/01/16 12:21:46;;;;;;;17.20;13.80;;;3.00;99.90;;;;;;5064628;28;20786;-66
2021/01/16 12:24:13;;;;;;;18.27;14.30;;;2.90;99.90;;;;;;5058630;28;20433;-65
2021/01/16 12:26:42;;;;;;;17.23;13.53;;;3.00;99.90;;;;;;5056007;28;20449;-65
2021/01/16 12:29:23;;;;;;;17.97;13.30;;;3.00;99.90;;;;;;5052651;28;20430;-65
2021/01/16 12:32:04;;;;;;;14.17;11.80;;;3.00;99.90;;;;;;5048782;28;20480;-65
2021/01/16 12:34:29;;;;;;;17.93;14.20;;;3.10;99.90;;;;;;5056875;28;20454;-65
2021/01/16 12:36:56;;;;;;;20.70;15.47;;;3.10;99.90;;;;;;5051291;28;20442;-65
2021/01/16 12:39:22;;;;;;;17.83;14.20;;;3.00;99.90;;;;;;5053517;28;20204;-65
2021/01/16 12:41:48;;;;;;;27.50;20.93;;;3.10;99.90;;;;;;5051426;28;20489;-65
2021/01/16 12:44:14;;;;;;;19.30;15.17;;;2.90;99.90;;;;;;5052494;28;20525;-65
2021/01/16 12:46:43;;;;;;;18.73;15.50;;;2.90;99.90;;;;;;5051600;28;20535;-66
2021/01/16 12:49:11;;;;;;;22.07;15.27;;;2.90;99.90;;;;;;5058626;28;20437;-65